sensor_id;sensor_type;location;lat;lon;timestamp;pressure;altitude;pressure_sealevel;temperature;humidity
72925;BME280;61070;50.794;7.054;2024-01-30T00:00:45;102229.50;;;5.29;85.14
72925;BME280;61070;50.794;7.054;2024-01-30T00:01:46;102225.16;;;5.25;85.00
72925;BME280;61070;50.794;7.054;2024-01-30T00:02:46;102230.38;;;5.25;85.13
72925;BME280;61070;50.794;7.054;2024-01-30T00:03:47;102233.84;;;5.30;84.92
72925;BME280;61070;50.794;7.054;2024-01-30T00:04:47;102232.97;;;5.31;85.54
72925;BME280;61070;50.794;7.054;2024-01-30T00:05:47;102226.03;;;5.29;85.34
72925;BME280;61070;50.794;7.054;2024-01-30T00:06:47;102219.09;;;5.29;85.65
72925;BME280;61070;50.794;7.054;2024-01-30T00:07:48;102227.78;;;5.25;85.15
72925;BME280;61070;50.794;7.054;2024-01-30T00:08:48;102224.31;;;5.25;85.58
72925;BME280;61070;50.794;7.054;2024-01-30T00:09:49;102226.91;;;5.26;85.54
72925;BME280;61070;50.794;7.054;2024-01-30T00:10:49;102227.78;;;5.21;85.29
72925;BME280;61070;50.794;7.054;2024-01-30T00:11:49;102226.03;;;5.26;85.31
72925;BME280;61070;50.794;7.054;2024-01-30T00:12:50;102223.44;;;5.26;85.26
72925;BME280;61070;50.794;7.054;2024-01-30T00:13:50;102222.56;;;5.34;85.38
72925;BME280;61070;50.794;7.054;2024-01-30T00:14:50;102222.53;;;5.31;84.93
72925;BME280;61070;50.794;7.054;2024-01-30T00:15:50;102218.22;;;5.30;84.93
72925;BME280;61070;50.794;7.054;2024-01-30T00:16:51;102225.16;;;5.27;84.92
72925;BME280;61070;50.794;7.054;2024-01-30T00:17:51;102224.31;;;5.29;85.17
72925;BME280;61070;50.794;7.054;2024-01-30T00:18:53;102220.84;;;5.19;84.88
72925;BME280;61070;50.794;7.054;2024-01-30T00:19:53;102219.09;;;5.20;85.16
72925;BME280;61070;50.794;7.054;2024-01-30T00:20:53;102211.25;;;5.26;85.24
72925;BME280;61070;50.794;7.054;2024-01-30T00:21:54;102212.13;;;5.34;84.73
72925;BME280;61070;50.794;7.054;2024-01-30T00:22:54;102210.41;;;5.33;84.51
72925;BME280;61070;50.794;7.054;2024-01-30T00:23:54;102220.81;;;5.38;84.52
72925;BME280;61070;50.794;7.054;2024-01-30T00:24:54;102217.34;;;5.39;84.71
72925;BME280;61070;50.794;7.054;2024-01-30T00:25:55;102217.34;;;5.34;84.94
72925;BME280;61070;50.794;7.054;2024-01-30T00:26:55;102216.47;;;5.34;84.86
72925;BME280;61070;50.794;7.054;2024-01-30T00:27:56;102212.16;;;5.28;84.96
72925;BME280;61070;50.794;7.054;2024-01-30T00:28:56;102217.34;;;5.27;85.01
72925;BME280;61070;50.794;7.054;2024-01-30T00:29:56;102213.88;;;5.28;85.21
72925;BME280;61070;50.794;7.054;2024-01-30T00:30:57;102217.34;;;5.39;84.93
72925;BME280;61070;50.794;7.054;2024-01-30T00:31:57;102215.63;;;5.33;84.37
72925;BME280;61070;50.794;7.054;2024-01-30T00:32:57;102213.88;;;5.29;84.83
72925;BME280;61070;50.794;7.054;2024-01-30T00:33:58;102206.06;;;5.22;84.77
72925;BME280;61070;50.794;7.054;2024-01-30T00:34:58;102204.34;;;5.17;84.55
72925;BME280;61070;50.794;7.054;2024-01-30T00:35:58;102216.47;;;5.17;84.91
72925;BME280;61070;50.794;7.054;2024-01-30T00:36:58;102209.53;;;5.21;84.92
72925;BME280;61070;50.794;7.054;2024-01-30T00:37:59;102204.31;;;5.27;84.89
72925;BME280;61070;50.794;7.054;2024-01-30T00:38:59;102213.88;;;5.26;84.95
72925;BME280;61070;50.794;7.054;2024-01-30T00:39:59;102209.56;;;5.19;84.69
72925;BME280;61070;50.794;7.054;2024-01-30T00:41:00;102209.56;;;5.17;85.09
72925;BME280;61070;50.794;7.054;2024-01-30T00:42:00;102204.34;;;5.13;85.20
72925;BME280;61070;50.794;7.054;2024-01-30T00:43:00;102209.56;;;5.13;85.23
72925;BME280;61070;50.794;7.054;2024-01-30T00:44:00;102204.34;;;5.13;85.12
72925;BME280;61070;50.794;7.054;2024-01-30T00:45:01;102215.63;;;5.15;84.64
72925;BME280;61070;50.794;7.054;2024-01-30T00:46:01;102205.22;;;5.07;85.05
72925;BME280;61070;50.794;7.054;2024-01-30T00:47:02;102205.22;;;5.03;85.41
72925;BME280;61070;50.794;7.054;2024-01-30T00:48:02;102204.34;;;4.96;85.42
72925;BME280;61070;50.794;7.054;2024-01-30T00:49:02;102210.44;;;4.93;85.70
72925;BME280;61070;50.794;7.054;2024-01-30T00:50:03;102211.28;;;5.00;85.79
72925;BME280;61070;50.794;7.054;2024-01-30T00:51:03;102206.97;;;4.98;85.69
72925;BME280;61070;50.794;7.054;2024-01-30T00:52:04;102207.81;;;5.00;85.66
72925;BME280;61070;50.794;7.054;2024-01-30T00:53:04;102206.09;;;4.94;85.63
72925;BME280;61070;50.794;7.054;2024-01-30T00:54:04;102205.22;;;4.93;85.85
72925;BME280;61070;50.794;7.054;2024-01-30T00:55:06;102203.47;;;5.00;85.65
72925;BME280;61070;50.794;7.054;2024-01-30T00:56:07;102197.41;;;5.06;85.79
72925;BME280;61070;50.794;7.054;2024-01-30T00:57:07;102198.25;;;5.11;85.76
72925;BME280;61070;50.794;7.054;2024-01-30T00:58:08;102193.94;;;5.04;85.71
72925;BME280;61070;50.794;7.054;2024-01-30T00:59:08;102195.66;;;5.11;85.60
72925;BME280;61070;50.794;7.054;2024-01-30T01:00:09;102198.25;;;5.06;85.33
72925;BME280;61070;50.794;7.054;2024-01-30T01:01:09;102207.81;;;5.04;85.27
72925;BME280;61070;50.794;7.054;2024-01-30T01:02:09;102197.41;;;5.00;85.65
72925;BME280;61070;50.794;7.054;2024-01-30T01:03:10;102207.81;;;5.06;85.49
72925;BME280;61070;50.794;7.054;2024-01-30T01:04:10;102208.69;;;5.05;85.52
72925;BME280;61070;50.794;7.054;2024-01-30T01:05:10;102200.00;;;5.06;85.34
72925;BME280;61070;50.794;7.054;2024-01-30T01:06:11;102199.16;;;4.98;85.38
72925;BME280;61070;50.794;7.054;2024-01-30T01:07:11;102206.09;;;5.05;85.78
72925;BME280;61070;50.794;7.054;2024-01-30T01:08:11;102202.63;;;5.03;85.20
72925;BME280;61070;50.794;7.054;2024-01-30T01:09:12;102202.63;;;5.00;85.43
72925;BME280;61070;50.794;7.054;2024-01-30T01:10:12;102198.28;;;4.96;85.45
72925;BME280;61070;50.794;7.054;2024-01-30T01:11:13;102200.00;;;5.18;85.38
72925;BME280;61070;50.794;7.054;2024-01-30T01:12:14;102201.75;;;5.13;84.99
72925;BME280;61070;50.794;7.054;2024-01-30T01:13:14;102201.75;;;5.10;85.05
72925;BME280;61070;50.794;7.054;2024-01-30T01:14:14;102197.41;;;5.04;85.31
72925;BME280;61070;50.794;7.054;2024-01-30T01:15:15;102201.72;;;5.11;85.53
72925;BME280;61070;50.794;7.054;2024-01-30T01:16:15;102202.59;;;5.01;85.23
72925;BME280;61070;50.794;7.054;2024-01-30T01:17:15;102208.69;;;5.00;85.59
72925;BME280;61070;50.794;7.054;2024-01-30T01:18:16;102200.00;;;5.15;85.18
72925;BME280;61070;50.794;7.054;2024-01-30T01:19:16;102200.88;;;5.11;85.16
72925;BME280;61070;50.794;7.054;2024-01-30T01:20:16;102198.28;;;5.08;85.17
72925;BME280;61070;50.794;7.054;2024-01-30T01:21:17;102195.66;;;5.11;85.45
72925;BME280;61070;50.794;7.054;2024-01-30T01:22:17;102202.59;;;5.10;85.43
72925;BME280;61070;50.794;7.054;2024-01-30T01:23:18;102203.50;;;5.08;85.27
72925;BME280;61070;50.794;7.054;2024-01-30T01:24:18;102203.47;;;5.09;85.46
72925;BME280;61070;50.794;7.054;2024-01-30T01:25:19;102202.59;;;5.12;85.36
72925;BME280;61070;50.794;7.054;2024-01-30T01:26:19;102196.53;;;5.05;85.50
72925;BME280;61070;50.794;7.054;2024-01-30T01:27:20;102204.38;;;5.02;85.50
72925;BME280;61070;50.794;7.054;2024-01-30T01:28:21;102206.09;;;5.05;85.59
72925;BME280;61070;50.794;7.054;2024-01-30T01:29:21;102211.28;;;5.05;85.42
72925;BME280;61070;50.794;7.054;2024-01-30T01:30:28;102199.13;;;5.05;85.43
72925;BME280;61070;50.794;7.054;2024-01-30T01:31:29;102191.31;;;5.07;85.29
72925;BME280;61070;50.794;7.054;2024-01-30T01:32:29;102197.41;;;5.09;85.44
72925;BME280;61070;50.794;7.054;2024-01-30T01:33:31;102189.59;;;5.04;85.42
72925;BME280;61070;50.794;7.054;2024-01-30T01:34:33;102203.47;;;5.00;86.03
72925;BME280;61070;50.794;7.054;2024-01-30T01:35:33;102192.22;;;5.07;85.56
72925;BME280;61070;50.794;7.054;2024-01-30T01:36:34;102193.91;;;5.19;85.45
72925;BME280;61070;50.794;7.054;2024-01-30T01:37:34;102193.94;;;5.13;85.08
72925;BME280;61070;50.794;7.054;2024-01-30T01:38:34;102193.91;;;5.21;85.06
72925;BME280;61070;50.794;7.054;2024-01-30T01:39:35;102194.78;;;5.10;85.01
72925;BME280;61070;50.794;7.054;2024-01-30T01:40:35;102190.47;;;5.05;85.42
72925;BME280;61070;50.794;7.054;2024-01-30T01:41:35;102188.72;;;5.05;85.47
72925;BME280;61070;50.794;7.054;2024-01-30T01:42:35;102186.13;;;5.04;85.38
72925;BME280;61070;50.794;7.054;2024-01-30T01:43:36;102191.31;;;5.05;85.52
72925;BME280;61070;50.794;7.054;2024-01-30T01:44:38;102187.84;;;5.14;85.44
72925;BME280;61070;50.794;7.054;2024-01-30T01:45:38;102192.16;;;5.12;85.36
72925;BME280;61070;50.794;7.054;2024-01-30T01:46:38;102193.06;;;5.12;85.47
72925;BME280;61070;50.794;7.054;2024-01-30T01:47:39;102193.03;;;5.15;85.37
72925;BME280;61070;50.794;7.054;2024-01-30T01:48:39;102198.25;;;5.20;85.52
72925;BME280;61070;50.794;7.054;2024-01-30T01:49:40;102193.91;;;5.21;85.31
72925;BME280;61070;50.794;7.054;2024-01-30T01:50:41;102193.03;;;5.29;85.12
72925;BME280;61070;50.794;7.054;2024-01-30T01:51:44;102194.78;;;5.24;85.01
72925;BME280;61070;50.794;7.054;2024-01-30T01:52:48;102193.03;;;5.17;84.85
72925;BME280;61070;50.794;7.054;2024-01-30T01:53:49;102195.63;;;5.22;85.15
72925;BME280;61070;50.794;7.054;2024-01-30T01:54:50;102195.66;;;5.20;85.11
72925;BME280;61070;50.794;7.054;2024-01-30T01:55:51;102194.78;;;5.21;85.17
72925;BME280;61070;50.794;7.054;2024-01-30T01:56:53;102200.00;;;5.15;85.36
72925;BME280;61070;50.794;7.054;2024-01-30T01:57:53;102199.13;;;5.21;85.45
72925;BME280;61070;50.794;7.054;2024-01-30T01:58:55;102203.44;;;5.26;85.31
72925;BME280;61070;50.794;7.054;2024-01-30T01:59:55;102198.22;;;5.26;85.06
72925;BME280;61070;50.794;7.054;2024-01-30T02:00:56;102199.97;;;5.33;85.25
72925;BME280;61070;50.794;7.054;2024-01-30T02:01:58;102200.00;;;5.27;84.81
72925;BME280;61070;50.794;7.054;2024-01-30T02:02:59;102200.00;;;5.23;84.93
72925;BME280;61070;50.794;7.054;2024-01-30T02:04:00;102193.03;;;5.17;85.08
72925;BME280;61070;50.794;7.054;2024-01-30T02:05:01;102184.38;;;5.18;85.43
72925;BME280;61070;50.794;7.054;2024-01-30T02:06:02;102183.47;;;5.30;84.97
72925;BME280;61070;50.794;7.054;2024-01-30T02:07:03;102187.81;;;5.25;84.96
72925;BME280;61070;50.794;7.054;2024-01-30T02:08:04;102185.22;;;5.20;84.97
72925;BME280;61070;50.794;7.054;2024-01-30T02:09:04;102182.63;;;5.18;85.33
72925;BME280;61070;50.794;7.054;2024-01-30T02:10:05;102187.84;;;5.23;85.06
72925;BME280;61070;50.794;7.054;2024-01-30T02:11:05;102188.72;;;5.17;85.26
72925;BME280;61070;50.794;7.054;2024-01-30T02:12:06;102184.38;;;5.13;85.31
72925;BME280;61070;50.794;7.054;2024-01-30T02:13:06;102181.75;;;5.15;85.37
72925;BME280;61070;50.794;7.054;2024-01-30T02:14:06;102180.00;;;5.15;85.70
72925;BME280;61070;50.794;7.054;2024-01-30T02:15:07;102185.25;;;5.12;85.36
72925;BME280;61070;50.794;7.054;2024-01-30T02:16:08;102183.47;;;5.16;85.58
72925;BME280;61070;50.794;7.054;2024-01-30T02:17:08;102180.00;;;5.20;85.25
72925;BME280;61070;50.794;7.054;2024-01-30T02:18:08;102173.06;;;5.21;85.39
72925;BME280;61070;50.794;7.054;2024-01-30T02:19:08;102182.63;;;5.18;85.17
72925;BME280;61070;50.794;7.054;2024-01-30T02:20:09;102181.75;;;5.19;85.40
72925;BME280;61070;50.794;7.054;2024-01-30T02:21:10;102180.00;;;5.20;85.32
72925;BME280;61070;50.794;7.054;2024-01-30T02:22:10;102184.31;;;5.32;84.95
72925;BME280;61070;50.794;7.054;2024-01-30T02:23:11;102183.47;;;5.34;84.87
72925;BME280;61070;50.794;7.054;2024-01-30T02:24:12;102179.97;;;5.37;84.59
72925;BME280;61070;50.794;7.054;2024-01-30T02:25:12;102182.56;;;5.41;84.38
72925;BME280;61070;50.794;7.054;2024-01-30T02:26:13;102181.72;;;5.38;84.48
72925;BME280;61070;50.794;7.054;2024-01-30T02:27:13;102169.59;;;5.32;84.34
72925;BME280;61070;50.794;7.054;2024-01-30T02:28:14;102181.72;;;5.36;84.24
72925;BME280;61070;50.794;7.054;2024-01-30T02:29:14;102179.09;;;5.36;84.62
72925;BME280;61070;50.794;7.054;2024-01-30T02:30:15;102173.91;;;5.26;84.51
72925;BME280;61070;50.794;7.054;2024-01-30T02:31:15;102177.41;;;5.23;84.74
72925;BME280;61070;50.794;7.054;2024-01-30T02:32:15;102177.41;;;5.32;84.80
72925;BME280;61070;50.794;7.054;2024-01-30T02:33:15;102183.47;;;5.28;84.89
72925;BME280;61070;50.794;7.054;2024-01-30T02:34:16;102177.41;;;5.25;84.85
72925;BME280;61070;50.794;7.054;2024-01-30T02:35:16;102170.47;;;5.24;85.09
72925;BME280;61070;50.794;7.054;2024-01-30T02:36:16;102172.19;;;5.32;84.82
72925;BME280;61070;50.794;7.054;2024-01-30T02:37:17;102175.63;;;5.31;84.67
72925;BME280;61070;50.794;7.054;2024-01-30T02:38:17;102178.25;;;5.25;84.98
72925;BME280;61070;50.794;7.054;2024-01-30T02:39:17;102166.97;;;5.17;85.20
72925;BME280;61070;50.794;7.054;2024-01-30T02:40:17;102175.69;;;5.17;85.36
72925;BME280;61070;50.794;7.054;2024-01-30T02:41:18;102170.47;;;5.16;85.43
72925;BME280;61070;50.794;7.054;2024-01-30T02:42:18;102184.38;;;5.18;85.54
72925;BME280;61070;50.794;7.054;2024-01-30T02:43:18;102168.72;;;5.21;85.50
72925;BME280;61070;50.794;7.054;2024-01-30T02:44:19;102175.66;;;5.24;85.29
72925;BME280;61070;50.794;7.054;2024-01-30T02:45:19;102180.88;;;5.24;85.36
72925;BME280;61070;50.794;7.054;2024-01-30T02:46:20;102174.78;;;5.26;85.40
72925;BME280;61070;50.794;7.054;2024-01-30T02:47:20;102184.38;;;5.23;85.04
72925;BME280;61070;50.794;7.054;2024-01-30T02:48:20;102173.06;;;5.24;85.43
72925;BME280;61070;50.794;7.054;2024-01-30T02:49:21;102173.06;;;5.25;85.04
72925;BME280;61070;50.794;7.054;2024-01-30T02:50:22;102173.94;;;5.23;85.03
72925;BME280;61070;50.794;7.054;2024-01-30T02:51:22;102178.25;;;5.25;85.10
72925;BME280;61070;50.794;7.054;2024-01-30T02:52:22;102177.41;;;5.22;85.19
72925;BME280;61070;50.794;7.054;2024-01-30T02:53:22;102169.56;;;5.26;85.05
72925;BME280;61070;50.794;7.054;2024-01-30T02:54:23;102177.41;;;5.25;84.99
72925;BME280;61070;50.794;7.054;2024-01-30T02:55:23;102176.53;;;5.24;85.08
72925;BME280;61070;50.794;7.054;2024-01-30T02:56:23;102178.28;;;5.24;85.08
72925;BME280;61070;50.794;7.054;2024-01-30T02:57:24;102169.59;;;5.23;85.04
72925;BME280;61070;50.794;7.054;2024-01-30T02:58:24;102166.09;;;5.26;85.00
72925;BME280;61070;50.794;7.054;2024-01-30T02:59:24;102164.38;;;5.29;85.09
72925;BME280;61070;50.794;7.054;2024-01-30T03:00:24;102168.69;;;5.30;84.68
72925;BME280;61070;50.794;7.054;2024-01-30T03:01:25;102162.59;;;5.40;84.42
72925;BME280;61070;50.794;7.054;2024-01-30T03:02:25;102166.06;;;5.36;84.56
72925;BME280;61070;50.794;7.054;2024-01-30T03:03:25;102161.78;;;5.28;84.54
72925;BME280;61070;50.794;7.054;2024-01-30T03:04:25;102161.72;;;5.40;84.55
72925;BME280;61070;50.794;7.054;2024-01-30T03:05:26;102167.81;;;5.36;84.70
72925;BME280;61070;50.794;7.054;2024-01-30T03:06:26;102156.53;;;5.29;84.69
72925;BME280;61070;50.794;7.054;2024-01-30T03:07:26;102161.75;;;5.29;84.99
72925;BME280;61070;50.794;7.054;2024-01-30T03:08:27;102160.06;;;5.22;84.83
72925;BME280;61070;50.794;7.054;2024-01-30T03:09:27;102168.69;;;5.33;85.22
72925;BME280;61070;50.794;7.054;2024-01-30T03:10:27;102162.59;;;5.40;84.90
72925;BME280;61070;50.794;7.054;2024-01-30T03:11:28;102167.81;;;5.39;84.48
72925;BME280;61070;50.794;7.054;2024-01-30T03:12:28;102159.16;;;5.29;85.09
72925;BME280;61070;50.794;7.054;2024-01-30T03:13:28;102167.84;;;5.30;85.16
72925;BME280;61070;50.794;7.054;2024-01-30T03:14:32;102163.50;;;5.29;85.27
72925;BME280;61070;50.794;7.054;2024-01-30T03:15:32;102157.38;;;5.40;84.48
72925;BME280;61070;50.794;7.054;2024-01-30T03:16:32;102159.16;;;5.28;84.30
72925;BME280;61070;50.794;7.054;2024-01-30T03:17:33;102165.25;;;5.24;84.98
72925;BME280;61070;50.794;7.054;2024-01-30T03:18:33;102166.13;;;5.19;85.08
72925;BME280;61070;50.794;7.054;2024-01-30T03:19:33;102163.50;;;5.16;85.31
72925;BME280;61070;50.794;7.054;2024-01-30T03:20:34;102159.19;;;5.14;85.63
72925;BME280;61070;50.794;7.054;2024-01-30T03:21:34;102158.28;;;5.16;85.70
72925;BME280;61070;50.794;7.054;2024-01-30T03:22:34;102160.91;;;5.21;85.49
72925;BME280;61070;50.794;7.054;2024-01-30T03:23:35;102157.44;;;5.17;85.44
72925;BME280;61070;50.794;7.054;2024-01-30T03:24:35;102158.31;;;5.12;85.64
72925;BME280;61070;50.794;7.054;2024-01-30T03:25:35;102162.69;;;5.08;85.71
72925;BME280;61070;50.794;7.054;2024-01-30T03:26:36;102158.31;;;5.06;86.07
72925;BME280;61070;50.794;7.054;2024-01-30T03:27:36;102153.97;;;5.06;85.98
72925;BME280;61070;50.794;7.054;2024-01-30T03:28:36;102154.84;;;5.07;86.23
72925;BME280;61070;50.794;7.054;2024-01-30T03:29:36;102160.06;;;5.10;86.17
72925;BME280;61070;50.794;7.054;2024-01-30T03:30:37;102153.09;;;5.12;86.07
72925;BME280;61070;50.794;7.054;2024-01-30T03:31:37;102147.88;;;5.15;85.81
72925;BME280;61070;50.794;7.054;2024-01-30T03:32:37;102160.91;;;5.12;85.87
72925;BME280;61070;50.794;7.054;2024-01-30T03:33:37;102154.81;;;5.16;85.54
72925;BME280;61070;50.794;7.054;2024-01-30T03:34:38;102158.31;;;5.13;85.83
72925;BME280;61070;50.794;7.054;2024-01-30T03:35:38;102153.97;;;5.11;86.12
72925;BME280;61070;50.794;7.054;2024-01-30T03:36:38;102153.94;;;5.25;85.88
72925;BME280;61070;50.794;7.054;2024-01-30T03:37:39;102147.00;;;5.21;85.67
72925;BME280;61070;50.794;7.054;2024-01-30T03:38:39;102152.22;;;5.28;85.72
72925;BME280;61070;50.794;7.054;2024-01-30T03:39:39;102154.84;;;5.22;85.46
72925;BME280;61070;50.794;7.054;2024-01-30T03:40:40;102153.94;;;5.22;85.70
72925;BME280;61070;50.794;7.054;2024-01-30T03:41:42;102149.63;;;5.17;85.85
72925;BME280;61070;50.794;7.054;2024-01-30T03:42:43;102150.50;;;5.13;85.68
72925;BME280;61070;50.794;7.054;2024-01-30T03:43:43;102155.72;;;5.13;86.23
72925;BME280;61070;50.794;7.054;2024-01-30T03:44:44;102151.38;;;5.14;86.23
72925;BME280;61070;50.794;7.054;2024-01-30T03:45:44;102152.22;;;5.14;86.28
72925;BME280;61070;50.794;7.054;2024-01-30T03:46:44;102154.84;;;5.22;85.95
72925;BME280;61070;50.794;7.054;2024-01-30T03:47:44;102156.56;;;5.18;85.90
72925;BME280;61070;50.794;7.054;2024-01-30T03:48:45;102155.69;;;5.21;85.94
72925;BME280;61070;50.794;7.054;2024-01-30T03:49:45;102157.44;;;5.19;85.84
72925;BME280;61070;50.794;7.054;2024-01-30T03:50:46;102151.34;;;5.22;85.73
72925;BME280;61070;50.794;7.054;2024-01-30T03:51:46;102152.25;;;5.17;85.89
72925;BME280;61070;50.794;7.054;2024-01-30T03:52:47;102144.38;;;5.27;86.15
72925;BME280;61070;50.794;7.054;2024-01-30T03:53:48;102148.72;;;5.29;85.86
72925;BME280;61070;50.794;7.054;2024-01-30T03:54:48;102143.53;;;5.25;85.48
72925;BME280;61070;50.794;7.054;2024-01-30T03:55:48;102140.88;;;5.35;85.50
72925;BME280;61070;50.794;7.054;2024-01-30T03:56:48;102146.13;;;5.25;85.44
72925;BME280;61070;50.794;7.054;2024-01-30T03:57:49;102143.53;;;5.18;85.86
72925;BME280;61070;50.794;7.054;2024-01-30T03:58:49;102151.34;;;5.20;85.87
72925;BME280;61070;50.794;7.054;2024-01-30T03:59:49;102144.38;;;5.25;86.16
72925;BME280;61070;50.794;7.054;2024-01-30T04:00:50;102143.53;;;5.20;85.88
72925;BME280;61070;50.794;7.054;2024-01-30T04:01:50;102148.75;;;5.20;86.14
72925;BME280;61070;50.794;7.054;2024-01-30T04:02:51;102149.63;;;5.17;86.07
72925;BME280;61070;50.794;7.054;2024-01-30T04:03:51;102137.47;;;5.18;86.12
72925;BME280;61070;50.794;7.054;2024-01-30T04:04:51;102140.91;;;5.26;86.31
72925;BME280;61070;50.794;7.054;2024-01-30T04:05:52;102136.56;;;5.28;85.99
72925;BME280;61070;50.794;7.054;2024-01-30T04:06:53;102141.78;;;5.28;86.17
72925;BME280;61070;50.794;7.054;2024-01-30T04:07:53;102142.66;;;5.26;85.98
72925;BME280;61070;50.794;7.054;2024-01-30T04:08:53;102143.50;;;5.26;86.16
72925;BME280;61070;50.794;7.054;2024-01-30T04:09:54;102145.25;;;5.24;86.27
72925;BME280;61070;50.794;7.054;2024-01-30T04:10:54;102143.53;;;5.22;86.12
72925;BME280;61070;50.794;7.054;2024-01-30T04:11:54;102144.41;;;5.21;86.39
72925;BME280;61070;50.794;7.054;2024-01-30T04:12:54;102145.28;;;5.18;86.55
72925;BME280;61070;50.794;7.054;2024-01-30T04:13:55;102148.75;;;5.25;86.69
72925;BME280;61070;50.794;7.054;2024-01-30T04:14:55;102137.44;;;5.27;86.42
72925;BME280;61070;50.794;7.054;2024-01-30T04:15:56;102148.75;;;5.28;86.50
72925;BME280;61070;50.794;7.054;2024-01-30T04:16:56;102140.84;;;5.44;86.44
72925;BME280;61070;50.794;7.054;2024-01-30T04:17:59;102136.50;;;5.53;85.95
72925;BME280;61070;50.794;7.054;2024-01-30T04:19:00;102133.00;;;5.55;85.84
72925;BME280;61070;50.794;7.054;2024-01-30T04:20:00;102128.66;;;5.57;85.50
72925;BME280;61070;50.794;7.054;2024-01-30T04:21:00;102131.28;;;5.57;85.47
72925;BME280;61070;50.794;7.054;2024-01-30T04:22:00;102133.81;;;5.69;85.64
72925;BME280;61070;50.794;7.054;2024-01-30T04:23:01;102134.66;;;5.71;85.63
72925;BME280;61070;50.794;7.054;2024-01-30T04:24:01;102132.09;;;5.67;85.46
72925;BME280;61070;50.794;7.054;2024-01-30T04:25:01;102135.56;;;5.61;85.59
72925;BME280;61070;50.794;7.054;2024-01-30T04:26:03;102128.66;;;5.57;85.69
72925;BME280;61070;50.794;7.054;2024-01-30T04:27:03;102129.50;;;5.59;85.59
72925;BME280;61070;50.794;7.054;2024-01-30T04:28:04;102123.47;;;5.53;85.77
72925;BME280;61070;50.794;7.054;2024-01-30T04:29:04;102133.03;;;5.52;85.72
72925;BME280;61070;50.794;7.054;2024-01-30T04:30:05;102120.00;;;5.52;85.70
72925;BME280;61070;50.794;7.054;2024-01-30T04:31:05;102131.25;;;5.56;85.71
72925;BME280;61070;50.794;7.054;2024-01-30T04:32:06;102130.38;;;5.55;85.79
72925;BME280;61070;50.794;7.054;2024-01-30T04:33:06;102129.50;;;5.56;85.66
72925;BME280;61070;50.794;7.054;2024-01-30T04:34:06;102127.81;;;5.52;85.67
72925;BME280;61070;50.794;7.054;2024-01-30T04:35:07;102137.34;;;5.52;85.84
72925;BME280;61070;50.794;7.054;2024-01-30T04:36:10;102132.16;;;5.49;85.84
72925;BME280;61070;50.794;7.054;2024-01-30T04:37:11;102129.56;;;5.45;85.98
72925;BME280;61070;50.794;7.054;2024-01-30T04:38:11;102130.44;;;5.43;85.90
72925;BME280;61070;50.794;7.054;2024-01-30T04:39:11;102124.31;;;5.52;85.92
72925;BME280;61070;50.794;7.054;2024-01-30T04:40:12;102127.75;;;5.63;85.65
72925;BME280;61070;50.794;7.054;2024-01-30T04:41:13;102115.63;;;5.59;85.33
72925;BME280;61070;50.794;7.054;2024-01-30T04:42:13;102123.44;;;5.59;85.34
72925;BME280;61070;50.794;7.054;2024-01-30T04:43:14;102121.72;;;5.53;85.45
72925;BME280;61070;50.794;7.054;2024-01-30T04:44:15;102107.81;;;5.53;85.80
72925;BME280;61070;50.794;7.054;2024-01-30T04:45:16;102127.72;;;5.66;84.95
72925;BME280;61070;50.794;7.054;2024-01-30T04:46:16;102131.22;;;5.62;85.11
72925;BME280;61070;50.794;7.054;2024-01-30T04:47:17;102121.66;;;5.67;85.29
72925;BME280;61070;50.794;7.054;2024-01-30T04:48:17;102129.50;;;5.62;85.14
72925;BME280;61070;50.794;7.054;2024-01-30T04:49:17;102116.50;;;5.50;85.28
72925;BME280;61070;50.794;7.054;2024-01-30T04:50:17;102119.94;;;5.61;85.33
72925;BME280;61070;50.794;7.054;2024-01-30T04:51:18;102125.19;;;5.55;85.29
72925;BME280;61070;50.794;7.054;2024-01-30T04:52:18;102129.53;;;5.55;85.11
72925;BME280;61070;50.794;7.054;2024-01-30T04:53:19;102115.63;;;5.54;85.44
72925;BME280;61070;50.794;7.054;2024-01-30T04:54:19;102121.75;;;5.47;85.05
72925;BME280;61070;50.794;7.054;2024-01-30T04:55:19;102128.69;;;5.47;85.55
72925;BME280;61070;50.794;7.054;2024-01-30T04:56:19;102127.81;;;5.52;85.49
72925;BME280;61070;50.794;7.054;2024-01-30T04:57:20;102133.00;;;5.51;85.33
72925;BME280;61070;50.794;7.054;2024-01-30T04:58:20;102119.97;;;5.54;85.46
72925;BME280;61070;50.794;7.054;2024-01-30T04:59:20;102120.84;;;5.51;85.39
72925;BME280;61070;50.794;7.054;2024-01-30T05:00:20;102124.34;;;5.44;85.45
72925;BME280;61070;50.794;7.054;2024-01-30T05:01:21;102123.47;;;5.45;85.68
72925;BME280;61070;50.794;7.054;2024-01-30T05:02:21;102127.81;;;5.41;85.56
72925;BME280;61070;50.794;7.054;2024-01-30T05:03:21;102118.28;;;5.39;85.64
72925;BME280;61070;50.794;7.054;2024-01-30T05:04:23;102129.63;;;5.33;85.65
72925;BME280;61070;50.794;7.054;2024-01-30T05:05:23;102132.22;;;5.33;86.00
72925;BME280;61070;50.794;7.054;2024-01-30T05:06:27;102133.09;;;5.28;85.82
72925;BME280;61070;50.794;7.054;2024-01-30T05:07:27;102128.78;;;5.19;85.81
72925;BME280;61070;50.794;7.054;2024-01-30T05:08:28;102140.06;;;5.19;86.04
72925;BME280;61070;50.794;7.054;2024-01-30T05:09:29;102136.59;;;5.17;86.22
72925;BME280;61070;50.794;7.054;2024-01-30T05:10:29;102147.91;;;5.13;86.37
72925;BME280;61070;50.794;7.054;2024-01-30T05:11:30;102138.34;;;5.12;86.66
72925;BME280;61070;50.794;7.054;2024-01-30T05:12:30;102149.63;;;5.11;86.57
72925;BME280;61070;50.794;7.054;2024-01-30T05:13:31;102152.25;;;5.13;86.65
72925;BME280;61070;50.794;7.054;2024-01-30T05:14:31;102146.16;;;5.06;86.39
72925;BME280;61070;50.794;7.054;2024-01-30T05:15:32;102140.09;;;5.04;86.71
72925;BME280;61070;50.794;7.054;2024-01-30T05:16:32;102147.06;;;5.04;86.71
72925;BME280;61070;50.794;7.054;2024-01-30T05:17:32;102143.53;;;5.22;86.71
72925;BME280;61070;50.794;7.054;2024-01-30T05:18:33;102142.66;;;5.19;86.42
72925;BME280;61070;50.794;7.054;2024-01-30T05:19:33;102151.34;;;5.15;86.44
72925;BME280;61070;50.794;7.054;2024-01-30T05:20:34;102144.38;;;5.25;86.26